createdAt,value
2018-01-11T00:01:15.368Z,254.77
2018-01-11T00:03:44.748Z,178.83
2018-01-11T00:06:13.132Z,205.37
2018-01-11T00:08:41.499Z,181.73
2018-01-11T00:11:09.915Z,171.10
2018-01-11T00:13:38.392Z,200.47
2018-01-11T00:16:06.753Z,262.20
2018-01-11T00:18:35.111Z,224.00
2018-01-11T00:21:03.512Z,170.20
2018-01-11T00:23:31.867Z,171.67
2018-01-11T00:26:00.738Z,233.07
2018-01-11T00:28:29.103Z,243.77
2018-01-11T00:30:57.455Z,193.57
2018-01-11T00:33:25.815Z,176.67
2018-01-11T00:35:54.227Z,181.20
2018-01-11T00:38:22.700Z,176.20
2018-01-11T00:40:51.719Z,202.87
2018-01-11T00:43:20.067Z,233.87
2018-01-11T00:45:48.655Z,154.07
2018-01-11T00:48:17.008Z,195.97
2018-01-11T00:50:45.386Z,165.83
2018-01-11T00:53:13.788Z,155.07
2018-01-11T00:55:42.174Z,189.33
2018-01-11T00:58:10.541Z,258.23
2018-01-11T01:00:38.907Z,309.70
2018-01-11T01:03:07.293Z,210.33
2018-01-11T01:05:35.667Z,181.57
2018-01-11T01:08:04.072Z,176.07
2018-01-11T01:10:32.455Z,197.90
2018-01-11T01:13:00.933Z,244.73
2018-01-11T01:15:29.412Z,177.47
2018-01-11T01:17:57.784Z,144.33
2018-01-11T01:20:26.203Z,194.93
2018-01-11T01:22:55.082Z,122.93
2018-01-11T01:25:23.540Z,134.23
2018-01-11T01:27:51.937Z,127.87
2018-01-11T01:30:20.292Z,119.20
2018-01-11T01:32:48.666Z,143.00
2018-01-11T01:35:17.036Z,147.13
2018-01-11T01:37:45.396Z,134.57
2018-01-11T01:40:13.774Z,163.93
2018-01-11T01:42:42.202Z,158.07
2018-01-11T01:45:10.666Z,131.63
2018-01-11T01:47:39.132Z,160.30
2018-01-11T01:50:07.948Z,104.37
2018-01-11T01:52:36.320Z,169.90
2018-01-11T01:55:04.678Z,116.17
2018-01-11T01:57:33.039Z,115.13
2018-01-11T02:00:01.409Z,107.83
2018-01-11T02:02:29.761Z,157.17
2018-01-11T02:04:58.143Z,116.83
2018-01-11T02:07:26.592Z,127.47
2018-01-11T02:09:54.959Z,127.73
2018-01-11T02:12:23.387Z,152.20
2018-01-11T02:14:51.828Z,121.27
2018-01-11T02:17:20.320Z,141.77
2018-01-11T02:19:48.682Z,142.50
2018-01-11T02:22:17.043Z,138.33
2018-01-11T02:24:45.408Z,122.13
2018-01-11T02:27:13.825Z,115.13
2018-01-11T02:29:42.859Z,119.53
2018-01-11T02:32:11.699Z,121.43
2018-01-11T02:34:40.059Z,133.87
2018-01-11T02:37:08.424Z,142.13
2018-01-11T02:39:36.838Z,150.90
2018-01-11T02:42:05.215Z,144.03
2018-01-11T02:44:33.597Z,128.47
2018-01-11T02:47:01.971Z,120.90
2018-01-11T02:49:30.353Z,121.03
2018-01-11T02:51:59.278Z,112.17
2018-01-11T02:54:27.644Z,132.00
2018-01-11T02:56:56.004Z,112.00
2018-01-11T02:59:24.378Z,110.57
2018-01-11T03:01:52.759Z,104.40
2018-01-11T03:04:21.239Z,109.03
2018-01-11T03:06:49.620Z,108.93
2018-01-11T03:09:18.050Z,99.67
2018-01-11T03:11:46.816Z,102.53
2018-01-11T03:14:15.267Z,112.40
2018-01-11T03:16:43.620Z,90.23
2018-01-11T03:19:12.025Z,105.90
2018-01-11T03:21:40.400Z,87.33
2018-01-11T03:24:08.781Z,80.70
2018-01-11T03:26:37.136Z,92.40
2018-01-11T03:29:06.032Z,85.80
2018-01-11T03:31:34.412Z,88.47
2018-01-11T03:34:02.783Z,86.40
2018-01-11T03:36:31.164Z,85.67
2018-01-11T03:38:59.572Z,81.67
2018-01-11T03:41:27.932Z,77.23
2018-01-11T03:43:56.343Z,76.13
2018-01-11T03:46:24.694Z,74.73
2018-01-11T03:48:53.063Z,78.83
2018-01-11T03:51:21.415Z,78.60
2018-01-11T03:53:50.164Z,80.90
2018-01-11T03:56:18.534Z,75.27
2018-01-11T03:58:47.007Z,75.33
2018-01-11T04:01:15.502Z,74.17
2018-01-11T04:03:43.880Z,73.13
2018-01-11T04:06:12.352Z,71.90
2018-01-11T04:08:40.730Z,79.60
2018-01-11T04:11:09.092Z,74.50
2018-01-11T04:13:37.472Z,68.83
2018-01-11T04:16:05.859Z,70.83
2018-01-11T04:18:34.217Z,70.30
2018-01-11T04:21:02.633Z,71.90
2018-01-11T04:23:30.990Z,74.70
2018-01-11T04:25:59.358Z,72.40
2018-01-11T04:28:27.849Z,65.70
2018-01-11T04:30:56.239Z,57.30
2018-01-11T04:33:25.745Z,67.97
2018-01-11T04:35:54.104Z,70.57
2018-01-11T04:38:22.510Z,70.77
2018-01-11T04:40:50.939Z,65.90
2018-01-11T04:43:19.687Z,75.80
2018-01-11T04:45:48.129Z,72.20
2018-01-11T04:48:16.632Z,69.83
2018-01-11T04:50:45.055Z,69.03
2018-01-11T04:53:13.912Z,75.77
2018-01-11T04:55:42.271Z,70.57
2018-01-11T04:58:10.636Z,74.77
2018-01-11T05:00:44.434Z,73.17
2018-01-11T05:03:12.845Z,67.97
2018-01-11T05:05:41.231Z,67.40
2018-01-11T05:08:09.582Z,97.93
2018-01-11T05:10:37.979Z,71.30
2018-01-11T05:13:06.335Z,79.23
2018-01-11T05:15:34.800Z,72.60
2018-01-11T05:18:03.223Z,69.63
2018-01-11T05:20:31.620Z,72.23
2018-01-11T05:23:00.193Z,81.93
2018-01-11T05:25:28.556Z,80.83
2018-01-11T05:27:57.159Z,85.53
2018-01-11T05:30:25.523Z,84.37
2018-01-11T05:32:53.867Z,105.40
2018-01-11T05:35:22.287Z,95.50
2018-01-11T05:37:50.738Z,102.60
2018-01-11T05:40:19.252Z,100.93
2018-01-11T05:42:47.601Z,117.07
2018-01-11T05:45:15.985Z,116.20
2018-01-11T05:47:44.361Z,107.40
2018-01-11T05:50:13.884Z,119.27
2018-01-11T05:52:42.238Z,121.33
2018-01-11T05:55:10.644Z,117.90
2018-01-11T05:57:39.232Z,125.13
2018-01-11T06:00:07.612Z,124.07
2018-01-11T06:02:36.001Z,112.00
2018-01-11T06:05:04.374Z,117.83
2018-01-11T06:07:32.738Z,120.33
2018-01-11T06:10:01.101Z,127.00
2018-01-11T06:12:29.478Z,146.00
2018-01-11T06:14:57.845Z,121.17
2018-01-11T06:17:26.253Z,131.77
2018-01-11T06:19:54.642Z,118.80
2018-01-11T06:22:23.007Z,122.80
2018-01-11T06:24:51.412Z,114.30
2018-01-11T06:27:20.036Z,117.80
2018-01-11T06:29:48.377Z,115.80
2018-01-11T06:32:16.746Z,118.60
2018-01-11T06:34:45.166Z,133.20
2018-01-11T06:37:13.589Z,115.97
2018-01-11T06:39:41.974Z,133.77
2018-01-11T06:42:10.336Z,122.40
2018-01-11T06:44:38.744Z,140.73
2018-01-11T06:47:07.216Z,142.63
2018-01-11T06:49:35.606Z,157.00
2018-01-11T06:52:04.012Z,130.77
2018-01-11T06:54:32.783Z,139.60
2018-01-11T06:57:01.243Z,163.93
2018-01-11T06:59:29.627Z,142.47
2018-01-11T07:01:57.989Z,142.80
2018-01-11T07:04:26.376Z,153.83
2018-01-11T07:06:54.755Z,167.53
2018-01-11T07:09:23.118Z,156.57
2018-01-11T07:11:51.508Z,150.63
2018-01-11T07:14:20.196Z,167.97
2018-01-11T07:16:48.548Z,182.23
2018-01-11T07:19:16.899Z,165.13
2018-01-11T07:21:46.047Z,148.23
2018-01-11T07:24:14.415Z,152.70
2018-01-11T07:26:42.790Z,150.40
2018-01-11T07:29:11.188Z,129.77
2018-01-11T07:31:39.575Z,137.53
2018-01-11T07:34:07.940Z,141.63
2018-01-11T07:36:36.327Z,139.07
2018-01-11T07:39:04.708Z,152.10
2018-01-11T07:41:33.069Z,123.27
2018-01-11T07:44:01.450Z,120.70
2018-01-11T07:46:29.843Z,140.43
2018-01-11T07:48:58.216Z,132.37
2018-01-11T07:51:26.601Z,137.43
2018-01-11T07:53:54.962Z,150.20
2018-01-11T07:56:23.336Z,126.10
2018-01-11T07:58:51.717Z,123.63
2018-01-11T08:01:20.075Z,124.50
2018-01-11T08:03:48.482Z,120.00
2018-01-11T08:06:16.871Z,127.67
2018-01-11T08:08:45.252Z,138.93
2018-01-11T08:11:13.703Z,111.40
2018-01-11T08:13:42.073Z,129.17
2018-01-11T08:16:10.483Z,104.63
2018-01-11T08:18:38.928Z,123.70
2018-01-11T08:21:07.548Z,123.80
2018-01-11T08:23:35.928Z,121.83
2018-01-11T08:26:04.286Z,127.13
2018-01-11T08:28:32.650Z,117.73
2018-01-11T08:31:01.068Z,127.30
2018-01-11T08:33:29.444Z,132.47
2018-01-11T08:35:57.815Z,157.07
2018-01-11T08:38:26.212Z,168.27
2018-01-11T08:40:54.656Z,209.53
2018-01-11T08:43:23.021Z,152.03
2018-01-11T08:45:51.380Z,127.67
2018-01-11T08:48:20.140Z,140.63
2018-01-11T08:50:48.504Z,201.47
2018-01-11T08:53:17.004Z,231.73
2018-01-11T08:55:45.364Z,162.93
2018-01-11T08:58:13.732Z,196.30
2018-01-11T09:00:42.948Z,172.07
2018-01-11T09:03:11.324Z,145.20
2018-01-11T09:05:39.803Z,134.27
2018-01-11T09:08:08.177Z,203.93
2018-01-11T09:10:36.580Z,166.10
2018-01-11T09:13:05.046Z,151.47
2018-01-11T09:15:33.410Z,165.87
2018-01-11T09:18:01.801Z,135.40
2018-01-11T09:20:30.155Z,126.80
2018-01-11T09:22:58.516Z,130.30
2018-01-11T09:25:26.927Z,135.50
2018-01-11T09:27:55.917Z,148.70
2018-01-11T09:30:24.306Z,155.30
2018-01-11T09:32:52.656Z,160.03
2018-01-11T09:35:21.007Z,170.03
2018-01-11T09:37:49.864Z,159.07
2018-01-11T09:40:18.668Z,152.73
2018-01-11T09:42:47.126Z,146.13
2018-01-11T09:45:15.507Z,144.07
2018-01-11T09:47:43.876Z,160.90
2018-01-11T09:50:12.256Z,129.17
2018-01-11T09:52:40.618Z,140.77
2018-01-11T09:55:09.000Z,132.60
2018-01-11T09:57:37.932Z,145.23
2018-01-11T10:00:06.723Z,133.47
2018-01-11T10:02:35.122Z,116.30
2018-01-11T10:05:03.559Z,148.47
2018-01-11T10:07:32.042Z,114.57
2018-01-11T10:10:00.387Z,117.57
2018-01-11T10:12:28.758Z,151.77
2018-01-11T10:14:57.127Z,145.57
2018-01-11T10:17:25.494Z,142.50
2018-01-11T10:19:54.351Z,149.70
2018-01-11T10:22:22.731Z,168.93
2018-01-11T10:24:51.124Z,166.20
2018-01-11T10:27:19.501Z,169.20
2018-01-11T10:29:47.964Z,150.67
2018-01-11T10:32:16.336Z,169.57
2018-01-11T10:34:44.691Z,155.40
2018-01-11T10:37:13.076Z,188.33
2018-01-11T10:39:41.451Z,186.23
2018-01-11T10:42:09.867Z,158.20
2018-01-11T10:44:38.248Z,180.17
2018-01-11T10:47:06.611Z,162.20
2018-01-11T10:49:34.964Z,149.17
2018-01-11T10:52:03.388Z,186.60
2018-01-11T10:54:31.853Z,160.73
2018-01-11T10:57:00.243Z,160.17
2018-01-11T10:59:28.597Z,176.67
2018-01-11T11:02:02.411Z,187.80
2018-01-11T11:04:30.808Z,194.00
2018-01-11T11:06:59.274Z,180.57
2018-01-11T11:09:27.754Z,189.70
2018-01-11T11:11:56.236Z,220.00
2018-01-11T11:14:24.604Z,189.00
2018-01-11T11:16:52.977Z,181.63
2018-01-11T11:19:21.379Z,188.53
2018-01-11T11:21:49.861Z,154.93
2018-01-11T11:24:18.251Z,156.37
2018-01-11T11:26:46.621Z,145.37
2018-01-11T11:29:15.008Z,156.37
2018-01-11T11:31:43.370Z,134.00
2018-01-11T11:34:11.736Z,138.27
2018-01-11T11:36:40.087Z,134.10
2018-01-11T11:39:08.464Z,158.00
2018-01-11T11:41:36.820Z,136.10
2018-01-11T11:44:05.572Z,149.50
2018-01-11T11:46:34.056Z,144.40
2018-01-11T11:49:02.435Z,134.20
2018-01-11T11:51:30.818Z,140.10
2018-01-11T11:53:59.199Z,125.80
2018-01-11T11:56:27.678Z,118.70
2018-01-11T11:58:56.052Z,120.47
2018-01-11T12:01:24.404Z,132.23
2018-01-11T12:03:52.772Z,157.07
2018-01-11T12:06:21.136Z,134.17
2018-01-11T12:08:49.915Z,133.83
2018-01-11T12:11:18.681Z,139.20
2018-01-11T12:13:47.139Z,131.80
2018-01-11T12:16:15.523Z,104.13
2018-01-11T12:18:43.905Z,111.40
2018-01-11T12:21:12.353Z,87.63
2018-01-11T12:23:40.720Z,104.27
2018-01-11T12:26:09.077Z,107.23
2018-01-11T12:28:37.851Z,96.73
2018-01-11T12:31:06.302Z,85.90
2018-01-11T12:33:34.754Z,83.53
2018-01-11T12:36:03.107Z,88.77
2018-01-11T12:38:31.853Z,96.80
2018-01-11T12:41:00.227Z,87.13
2018-01-11T12:43:28.600Z,89.23
2018-01-11T12:45:56.962Z,97.13
2018-01-11T12:48:27.420Z,104.40
2018-01-11T12:50:55.788Z,104.03
2018-01-11T12:53:24.152Z,90.40
2018-01-11T12:55:52.516Z,101.83
2018-01-11T12:58:21.001Z,85.63
2018-01-11T13:00:49.404Z,96.63
2018-01-11T13:03:17.772Z,96.67
2018-01-11T13:05:46.149Z,99.47
2018-01-11T13:08:14.499Z,96.37
2018-01-11T13:10:42.880Z,104.20
2018-01-11T13:13:11.301Z,97.77
2018-01-11T13:15:39.655Z,127.37
2018-01-11T13:18:08.027Z,115.67
2018-01-11T13:20:36.387Z,123.60
2018-01-11T13:23:04.813Z,116.60
2018-01-11T13:25:33.170Z,91.13
2018-01-11T13:28:01.571Z,98.27
2018-01-11T13:30:29.940Z,116.00
2018-01-11T13:32:58.303Z,93.30
2018-01-11T13:35:26.676Z,114.87
2018-01-11T13:37:55.030Z,100.10
2018-01-11T13:40:23.798Z,98.67
2018-01-11T13:42:52.748Z,106.50
2018-01-11T13:45:21.108Z,119.90
2018-01-11T13:47:49.488Z,112.10
2018-01-11T13:50:17.860Z,119.90
2018-01-11T13:52:46.287Z,136.30
2018-01-11T13:55:14.654Z,113.30
2018-01-11T13:57:43.238Z,131.00
2018-01-11T14:00:11.628Z,131.70
2018-01-11T14:02:40.002Z,122.20
2018-01-11T14:05:08.352Z,111.70
2018-01-11T14:07:36.707Z,125.47
2018-01-11T14:10:05.469Z,132.50
2018-01-11T14:12:33.864Z,120.83
2018-01-11T14:15:02.721Z,100.00
2018-01-11T14:17:31.101Z,101.30
2018-01-11T14:19:59.469Z,127.53
2018-01-11T14:22:27.860Z,133.43
2018-01-11T14:24:56.332Z,124.33
2018-01-11T14:27:24.704Z,139.30
2018-01-11T14:29:53.214Z,120.23
2018-01-11T14:32:21.589Z,125.50
2018-01-11T14:34:49.951Z,117.50
2018-01-11T14:37:18.341Z,123.67
2018-01-11T14:39:46.734Z,128.13
2018-01-11T14:42:15.098Z,116.60
2018-01-11T14:44:43.577Z,118.93
2018-01-11T14:47:11.948Z,114.57
2018-01-11T14:49:40.416Z,127.37
2018-01-11T14:52:08.764Z,122.33
2018-01-11T14:54:37.215Z,140.80
2018-01-11T14:57:05.570Z,128.97
2018-01-11T14:59:33.919Z,150.03
2018-01-11T15:02:02.354Z,137.20
2018-01-11T15:04:30.718Z,146.57
2018-01-11T15:06:59.198Z,134.17
2018-01-11T15:09:27.675Z,151.37
2018-01-11T15:11:56.057Z,136.20
2018-01-11T15:14:24.527Z,128.47
2018-01-11T15:16:52.868Z,158.10
2018-01-11T15:19:21.224Z,144.13
2018-01-11T15:21:49.975Z,120.90
2018-01-11T15:24:18.378Z,114.87
2018-01-11T15:26:46.875Z,101.03
2018-01-11T15:29:15.731Z,108.93
2018-01-11T15:31:44.126Z,106.23
2018-01-11T15:34:12.503Z,114.70
2018-01-11T15:36:40.976Z,113.27
2018-01-11T15:39:09.441Z,131.27
2018-01-11T15:41:37.820Z,129.33
2018-01-11T15:44:06.204Z,129.53
2018-01-11T15:46:34.572Z,130.10
2018-01-11T15:49:02.958Z,134.60
2018-01-11T15:51:31.432Z,115.77
2018-01-11T15:53:59.807Z,117.47
2018-01-11T15:56:28.252Z,119.60
2018-01-11T15:58:56.616Z,115.67
2018-01-11T16:01:25.373Z,115.70
2018-01-11T16:03:53.848Z,130.67
2018-01-11T16:06:22.232Z,124.47
2018-01-11T16:08:50.607Z,127.67
2018-01-11T16:11:19.884Z,142.10
2018-01-11T16:13:48.231Z,135.23
2018-01-11T16:16:16.813Z,117.57
2018-01-11T16:18:45.564Z,129.70
2018-01-11T16:21:13.916Z,114.03
2018-01-11T16:23:42.300Z,107.07
2018-01-11T16:26:10.643Z,92.37
2018-01-11T16:28:39.017Z,114.53
2018-01-11T16:31:07.460Z,104.20
2018-01-11T16:33:35.915Z,122.83
2018-01-11T16:36:04.300Z,124.37
2018-01-11T16:38:32.709Z,131.80
2018-01-11T16:41:01.504Z,159.57
2018-01-11T16:43:30.356Z,131.63
2018-01-11T16:45:58.875Z,133.30
2018-01-11T16:48:27.632Z,124.67
2018-01-11T16:50:55.995Z,151.60
2018-01-11T16:53:24.368Z,185.70
2018-01-11T16:55:52.755Z,162.20
2018-01-11T16:58:21.140Z,134.63
2018-01-11T17:00:49.526Z,155.57
2018-01-11T17:03:17.899Z,155.60
2018-01-11T17:05:46.271Z,133.93
2018-01-11T17:08:14.685Z,123.73
2018-01-11T17:10:43.077Z,111.60
2018-01-11T17:13:11.827Z,122.57
2018-01-11T17:15:40.176Z,108.03
2018-01-11T17:18:08.548Z,119.63
2018-01-11T17:20:36.898Z,100.30
2018-01-11T17:23:05.640Z,89.10
2018-01-11T17:25:34.010Z,104.60
2018-01-11T17:28:02.408Z,102.30
2018-01-11T17:30:30.785Z,109.77
2018-01-11T17:32:59.157Z,100.77
2018-01-11T17:35:27.510Z,108.57
2018-01-11T17:37:55.862Z,102.73
2018-01-11T17:40:24.649Z,103.53
2018-01-11T17:42:53.415Z,109.20
2018-01-11T17:45:21.779Z,104.90
2018-01-11T17:47:50.156Z,98.27
2018-01-11T17:50:18.517Z,119.47
2018-01-11T17:52:46.878Z,101.73
2018-01-11T17:55:15.258Z,100.47
2018-01-11T17:57:43.613Z,103.63
2018-01-11T18:00:12.351Z,100.13
2018-01-11T18:02:40.731Z,111.07
2018-01-11T18:05:09.080Z,101.03
2018-01-11T18:07:37.432Z,110.53
2018-01-11T18:10:06.204Z,104.27
2018-01-11T18:12:34.561Z,125.97
2018-01-11T18:15:02.916Z,111.57
2018-01-11T18:17:31.330Z,117.90
2018-01-11T18:19:59.763Z,118.43
2018-01-11T18:22:28.119Z,130.47
2018-01-11T18:24:56.903Z,124.10
2018-01-11T18:27:25.745Z,114.70
2018-01-11T18:29:54.100Z,131.70
2018-01-11T18:32:22.520Z,129.83
2018-01-11T18:34:50.888Z,127.00
2018-01-11T18:37:19.252Z,120.33
2018-01-11T18:39:47.620Z,123.47
2018-01-11T18:42:16.025Z,127.67
2018-01-11T18:44:44.379Z,130.47
2018-01-11T18:47:12.744Z,132.53
2018-01-11T18:49:41.109Z,133.77
2018-01-11T18:52:09.896Z,126.37
2018-01-11T18:54:38.660Z,145.23
2018-01-11T18:57:07.012Z,140.20
2018-01-11T18:59:35.384Z,142.47
2018-01-11T19:02:03.737Z,126.80
2018-01-11T19:04:32.112Z,149.10
2018-01-11T19:07:00.537Z,143.97
2018-01-11T19:09:28.912Z,144.07
2018-01-11T19:11:57.385Z,156.70
2018-01-11T19:14:25.749Z,146.53
2018-01-11T19:16:54.119Z,127.10
2018-01-11T19:19:22.468Z,140.10
2018-01-11T19:21:51.220Z,134.33
2018-01-11T19:24:19.681Z,147.77
2018-01-11T19:26:48.024Z,137.83
2018-01-11T19:29:16.400Z,134.33
2018-01-11T19:31:44.761Z,124.87
2018-01-11T19:34:13.612Z,134.83
2018-01-11T19:36:41.972Z,146.70
2018-01-11T19:39:10.321Z,134.77
2018-01-11T19:41:39.172Z,144.50
2018-01-11T19:44:07.534Z,149.93
2018-01-11T19:46:35.932Z,137.03
2018-01-11T19:49:04.389Z,144.73
2018-01-11T19:51:32.773Z,140.90
2018-01-11T19:54:01.155Z,137.43
2018-01-11T19:56:29.507Z,128.20
2018-01-11T19:58:57.858Z,122.07
2018-01-11T20:01:26.696Z,130.73
2018-01-11T20:03:55.076Z,136.87
2018-01-11T20:06:23.440Z,111.90
2018-01-11T20:08:51.832Z,116.47
2018-01-11T20:11:20.331Z,109.97
2018-01-11T20:13:48.727Z,117.90
2018-01-11T20:16:17.482Z,137.13
2018-01-11T20:18:45.858Z,127.03
2018-01-11T20:21:14.249Z,127.67
2018-01-11T20:23:42.596Z,114.60
2018-01-11T20:26:10.976Z,115.77
2018-01-11T20:28:39.377Z,111.93
2018-01-11T20:31:07.860Z,119.97
2018-01-11T20:33:36.256Z,110.43
2018-01-11T20:36:04.680Z,118.00
2018-01-11T20:38:33.094Z,107.63
2018-01-11T20:41:01.444Z,122.03
2018-01-11T20:43:29.820Z,117.73
2018-01-11T20:45:58.167Z,120.20
2018-01-11T20:48:27.032Z,127.47
2018-01-11T20:50:55.400Z,115.93
2018-01-11T20:53:23.752Z,116.07
2018-01-11T20:55:52.175Z,113.93
2018-01-11T20:58:20.550Z,112.63
2018-01-11T21:00:48.908Z,102.43
2018-01-11T21:03:17.288Z,120.97
2018-01-11T21:05:45.641Z,110.47
2018-01-11T21:08:14.043Z,97.50
2018-01-11T21:10:42.424Z,108.60
2018-01-11T21:13:10.794Z,113.00
2018-01-11T21:15:39.156Z,113.13
2018-01-11T21:18:07.532Z,123.73
2018-01-11T21:20:35.910Z,117.73
2018-01-11T21:23:04.257Z,127.67
2018-01-11T21:25:32.609Z,123.80
2018-01-11T21:28:00.975Z,136.10
2018-01-11T21:30:29.372Z,128.53
2018-01-11T21:32:57.756Z,133.90
2018-01-11T21:35:26.107Z,138.80
2018-01-11T21:37:54.500Z,145.50
2018-01-11T21:40:22.888Z,117.23
2018-01-11T21:42:51.255Z,170.90
2018-01-11T21:45:19.722Z,147.20
2018-01-11T21:47:48.088Z,152.37
2018-01-11T21:50:16.440Z,157.90
2018-01-11T21:52:45.200Z,160.93
2018-01-11T21:55:13.551Z,157.90
2018-01-11T21:57:41.933Z,160.63
2018-01-11T22:00:10.280Z,161.00
2018-01-11T22:02:38.628Z,143.73
2018-01-11T22:05:07.383Z,157.60
2018-01-11T22:07:35.747Z,153.97
2018-01-11T22:10:04.118Z,147.67
2018-01-11T22:12:32.464Z,150.80
2018-01-11T22:15:00.892Z,140.50
2018-01-11T22:17:29.254Z,144.63
2018-01-11T22:19:57.654Z,139.37
2018-01-11T22:22:26.132Z,134.40
2018-01-11T22:24:54.569Z,139.10
2018-01-11T22:27:22.941Z,131.37
2018-01-11T22:29:51.854Z,152.83
2018-01-11T22:32:20.221Z,144.40
2018-01-11T22:34:48.559Z,151.17
2018-01-11T22:37:16.920Z,159.87
2018-01-11T22:39:45.274Z,162.60
2018-01-11T22:42:13.678Z,150.93
2018-01-11T22:44:42.153Z,150.77
2018-01-11T22:47:10.505Z,158.23
2018-01-11T22:49:38.916Z,153.03
2018-01-11T22:52:07.400Z,166.33
2018-01-11T22:54:35.752Z,163.00
2018-01-11T22:57:04.104Z,170.83
2018-01-11T22:59:32.604Z,164.63
2018-01-11T23:02:00.963Z,150.17
2018-01-11T23:04:29.712Z,163.83
2018-01-11T23:06:58.174Z,175.27
2018-01-11T23:09:26.685Z,150.73
2018-01-11T23:11:55.112Z,158.60
2018-01-11T23:14:23.518Z,146.23
2018-01-11T23:16:51.891Z,149.10
2018-01-11T23:19:20.247Z,158.60
2018-01-11T23:21:48.608Z,154.10
2018-01-11T23:24:17.436Z,142.67
2018-01-11T23:26:45.793Z,146.60
2018-01-11T23:29:14.156Z,143.97
2018-01-11T23:31:42.512Z,149.57
2018-01-11T23:34:10.854Z,148.40
2018-01-11T23:36:39.356Z,159.63
2018-01-11T23:39:07.816Z,141.03
2018-01-11T23:41:36.177Z,134.90
2018-01-11T23:44:04.576Z,160.60
2018-01-11T23:46:32.950Z,148.57
2018-01-11T23:49:01.298Z,144.53
2018-01-11T23:51:29.791Z,164.50
2018-01-11T23:53:58.196Z,160.83
2018-01-11T23:56:26.564Z,144.80
2018-01-11T23:58:54.932Z,156.60
